createdAt,value
2023-09-06T00:01:34.510Z,99.90
2023-09-06T00:04:02.076Z,99.90
2023-09-06T00:06:29.580Z,99.90
2023-09-06T00:08:56.619Z,99.90
2023-09-06T00:11:23.821Z,99.90
2023-09-06T00:13:50.849Z,99.90
2023-09-06T00:16:18.832Z,99.90
2023-09-06T00:18:46.147Z,99.90
2023-09-06T00:21:13.157Z,99.90
2023-09-06T00:23:41.392Z,99.90
2023-09-06T00:26:08.365Z,99.90
2023-09-06T00:28:35.382Z,99.90
2023-09-06T00:31:02.594Z,99.90
2023-09-06T00:33:34.844Z,99.90
2023-09-06T00:36:08.102Z,99.90
2023-09-06T00:38:35.187Z,99.90
2023-09-06T00:41:02.343Z,99.90
2023-09-06T00:43:29.675Z,99.90
2023-09-06T00:45:57.751Z,99.90
2023-09-06T00:48:27.587Z,99.90
2023-09-06T00:50:56.916Z,99.90
2023-09-06T00:53:26.034Z,99.90
2023-09-06T00:55:53.588Z,99.90
2023-09-06T00:58:21.570Z,99.90
2023-09-06T01:00:51.509Z,99.90
2023-09-06T01:03:19.704Z,99.90
2023-09-06T01:06:02.551Z,99.90
2023-09-06T01:08:36.894Z,99.90
2023-09-06T01:11:22.618Z,99.90
2023-09-06T01:13:54.084Z,99.90
2023-09-06T01:16:28.168Z,99.90
2023-09-06T01:18:55.556Z,99.90
2023-09-06T01:21:31.653Z,99.90
2023-09-06T01:24:00.756Z,99.90
2023-09-06T01:26:28.254Z,99.90
2023-09-06T01:28:56.142Z,99.90
2023-09-06T01:31:23.296Z,99.90
2023-09-06T01:33:50.486Z,99.90
2023-09-06T01:36:17.529Z,99.90
2023-09-06T01:38:44.663Z,99.90
2023-09-06T01:41:13.290Z,99.90
2023-09-06T01:43:40.599Z,99.90
2023-09-06T01:46:07.993Z,99.90
2023-09-06T01:48:35.324Z,99.90
2023-09-06T01:51:05.439Z,99.90
2023-09-06T01:53:32.838Z,99.90
2023-09-06T01:55:59.971Z,99.90
2023-09-06T01:58:27.611Z,99.90
2023-09-06T02:00:54.971Z,99.90
2023-09-06T02:03:22.532Z,99.90
2023-09-06T02:05:49.998Z,99.90
2023-09-06T02:08:17.668Z,99.90
2023-09-06T02:10:45.709Z,99.90
2023-09-06T02:13:12.949Z,99.90
2023-09-06T02:15:40.363Z,99.90
2023-09-06T02:18:07.754Z,99.90
2023-09-06T02:20:34.959Z,99.90
2023-09-06T02:23:02.334Z,99.90
2023-09-06T02:25:31.356Z,99.90
2023-09-06T02:28:06.705Z,99.90
2023-09-06T02:30:39.815Z,99.90
2023-09-06T02:33:09.437Z,99.90
2023-09-06T02:35:37.177Z,99.90
2023-09-06T02:38:05.068Z,99.90
2023-09-06T02:40:32.258Z,99.90
2023-09-06T02:42:59.942Z,99.90
2023-09-06T02:45:37.990Z,99.90
2023-09-06T02:48:13.722Z,99.90
2023-09-06T02:50:41.737Z,99.90
2023-09-06T02:53:21.793Z,99.90
2023-09-06T02:55:53.398Z,99.90
2023-09-06T02:58:26.396Z,99.90
2023-09-06T03:01:00.030Z,99.90
2023-09-06T03:03:28.842Z,99.90
2023-09-06T03:06:00.731Z,99.90
2023-09-06T03:08:30.464Z,99.90
2023-09-06T03:10:58.256Z,99.90
2023-09-06T03:13:25.920Z,99.90
2023-09-06T03:15:53.307Z,99.90
2023-09-06T03:18:21.254Z,99.90
2023-09-06T03:20:48.856Z,99.90
2023-09-06T03:23:19.949Z,99.90
2023-09-06T03:25:55.900Z,99.90
2023-09-06T03:28:24.304Z,99.90
2023-09-06T03:30:53.349Z,99.90
2023-09-06T03:33:20.755Z,99.90
2023-09-06T03:35:50.233Z,99.90
2023-09-06T03:38:19.294Z,99.90
2023-09-06T03:40:46.829Z,99.90
2023-09-06T03:43:17.983Z,99.90
2023-09-06T03:45:53.352Z,99.90
2023-09-06T03:48:26.375Z,99.90
2023-09-06T03:50:59.177Z,99.90
2023-09-06T03:53:27.167Z,99.90
2023-09-06T03:55:58.497Z,99.90
2023-09-06T03:58:28.889Z,99.90
2023-09-06T04:00:57.898Z,99.90
2023-09-06T04:03:27.859Z,99.90
2023-09-06T04:05:56.361Z,99.90
2023-09-06T04:08:29.726Z,99.90
2023-09-06T04:10:57.559Z,99.90
2023-09-06T04:13:24.782Z,99.90
2023-09-06T04:15:51.980Z,99.90
2023-09-06T04:18:20.457Z,99.90
2023-09-06T04:20:50.337Z,99.90
2023-09-06T04:23:17.976Z,99.90
2023-09-06T04:25:48.202Z,99.90
2023-09-06T04:28:17.398Z,99.90
2023-09-06T04:30:49.142Z,99.90
2023-09-06T04:33:17.227Z,99.90
2023-09-06T04:35:49.482Z,99.90
2023-09-06T04:38:19.584Z,99.90
2023-09-06T04:40:48.757Z,99.90
2023-09-06T04:43:20.682Z,99.90
2023-09-06T04:45:51.098Z,99.90
2023-09-06T04:48:19.323Z,99.90
2023-09-06T04:50:47.824Z,99.90
2023-09-06T04:53:19.509Z,99.90
2023-09-06T04:55:50.875Z,99.90
2023-09-06T04:58:19.618Z,99.90
2023-09-06T05:00:49.213Z,99.90
2023-09-06T05:03:21.076Z,99.90
2023-09-06T05:05:49.184Z,99.90
2023-09-06T05:08:17.787Z,99.90
2023-09-06T05:10:45.102Z,99.90
2023-09-06T05:13:13.566Z,99.90
2023-09-06T05:15:40.962Z,99.90
2023-09-06T05:18:09.766Z,99.90
2023-09-06T05:20:41.184Z,99.90
2023-09-06T05:23:16.326Z,99.90
2023-09-06T05:25:44.212Z,99.90
2023-09-06T05:28:16.271Z,99.90
2023-09-06T05:30:45.728Z,99.90
2023-09-06T05:33:15.351Z,99.90
2023-09-06T05:35:44.192Z,99.90
2023-09-06T05:38:11.503Z,99.90
2023-09-06T05:40:41.725Z,99.90
2023-09-06T05:43:09.513Z,99.90
2023-09-06T05:45:36.752Z,99.90
2023-09-06T05:48:04.762Z,99.90
2023-09-06T05:50:33.014Z,99.90
2023-09-06T05:53:00.745Z,99.90
2023-09-06T05:55:28.488Z,99.90
2023-09-06T05:57:55.770Z,99.90
2023-09-06T06:00:23.989Z,99.90
2023-09-06T06:02:51.525Z,99.90
2023-09-06T06:05:20.099Z,99.90
2023-09-06T06:07:47.613Z,99.90
2023-09-06T06:10:15.136Z,99.90
2023-09-06T06:12:44.558Z,99.90
2023-09-06T06:15:16.764Z,99.90
2023-09-06T06:17:44.171Z,99.90
2023-09-06T06:20:13.510Z,99.90
2023-09-06T06:22:41.468Z,99.90
2023-09-06T06:25:10.125Z,99.90
2023-09-06T06:27:40.671Z,99.90
2023-09-06T06:30:09.091Z,99.90
2023-09-06T06:32:36.525Z,99.90
2023-09-06T06:35:07.470Z,99.90
2023-09-06T06:37:35.951Z,99.90
2023-09-06T06:40:04.314Z,99.90
2023-09-06T06:42:33.622Z,99.90
2023-09-06T06:45:00.835Z,99.90
2023-09-06T06:47:28.111Z,99.90
2023-09-06T06:50:04.438Z,99.90
2023-09-06T06:52:32.287Z,99.90
2023-09-06T06:54:59.694Z,99.90
2023-09-06T06:57:26.787Z,99.90
2023-09-06T06:59:54.070Z,99.90
2023-09-06T07:02:21.368Z,99.90
2023-09-06T07:04:48.710Z,99.90
2023-09-06T07:07:15.873Z,99.90
2023-09-06T07:09:43.152Z,99.90
2023-09-06T07:12:10.079Z,99.90
2023-09-06T07:14:37.099Z,99.90
2023-09-06T07:17:04.321Z,99.90
2023-09-06T07:19:31.548Z,99.90
2023-09-06T07:22:00.620Z,99.90
2023-09-06T07:24:28.233Z,99.90
2023-09-06T07:26:55.199Z,99.90
2023-09-06T07:29:23.370Z,99.90
2023-09-06T07:31:50.372Z,99.90
2023-09-06T07:34:17.520Z,99.90
2023-09-06T07:36:44.838Z,99.90
2023-09-06T07:39:11.956Z,99.90
2023-09-06T07:41:41.981Z,99.90
2023-09-06T07:44:11.144Z,99.90
2023-09-06T07:46:39.388Z,99.90
2023-09-06T07:49:06.613Z,99.90
2023-09-06T07:51:33.870Z,99.90
2023-09-06T07:54:00.972Z,99.90
2023-09-06T07:56:27.999Z,99.90
2023-09-06T07:58:55.063Z,99.90
2023-09-06T08:01:22.271Z,99.90
2023-09-06T08:03:49.677Z,99.90
2023-09-06T08:06:17.407Z,99.90
2023-09-06T08:08:45.152Z,99.90
2023-09-06T08:11:12.337Z,99.90
2023-09-06T08:13:42.582Z,99.90
2023-09-06T08:16:12.478Z,99.90
2023-09-06T08:18:40.353Z,99.90
2023-09-06T08:21:09.036Z,99.90
2023-09-06T08:23:36.085Z,99.90
2023-09-06T08:26:03.102Z,99.90
2023-09-06T08:28:30.600Z,99.90
2023-09-06T08:30:58.724Z,99.90
2023-09-06T08:33:26.046Z,99.90
2023-09-06T08:35:53.061Z,99.90
2023-09-06T08:38:20.274Z,99.90
2023-09-06T08:40:47.120Z,99.90
2023-09-06T08:43:16.031Z,99.90
2023-09-06T08:45:44.107Z,99.90
2023-09-06T08:48:12.754Z,99.90
2023-09-06T08:50:40.014Z,99.90
2023-09-06T08:53:11.155Z,99.90
2023-09-06T08:55:38.887Z,99.90
2023-09-06T08:58:06.756Z,99.90
2023-09-06T09:00:35.437Z,99.90
2023-09-06T09:03:03.636Z,99.90
2023-09-06T09:05:30.885Z,99.90
2023-09-06T09:08:02.260Z,99.90
2023-09-06T09:10:33.703Z,99.90
2023-09-06T09:13:02.297Z,99.90
2023-09-06T09:15:34.332Z,99.90
2023-09-06T09:18:11.665Z,99.90
2023-09-06T09:20:42.257Z,99.90
2023-09-06T09:23:17.449Z,99.50
2023-09-06T09:25:49.467Z,98.90
2023-09-06T09:28:17.350Z,98.80
2023-09-06T09:30:46.132Z,98.80
2023-09-06T09:33:14.130Z,99.00
2023-09-06T09:35:41.963Z,98.40
2023-09-06T09:38:14.171Z,98.40
2023-09-06T09:40:52.884Z,98.50
2023-09-06T09:43:30.441Z,98.80
2023-09-06T09:45:58.531Z,97.80
2023-09-06T09:48:33.045Z,97.40
2023-09-06T09:51:11.979Z,98.10
2023-09-06T09:53:41.128Z,98.20
2023-09-06T09:56:08.866Z,97.70
2023-09-06T09:58:37.001Z,97.40
2023-09-06T10:01:07.632Z,97.80
2023-09-06T10:03:39.212Z,97.70
2023-09-06T10:06:08.220Z,97.10
2023-09-06T10:08:38.656Z,97.70
2023-09-06T10:11:07.964Z,97.40
2023-09-06T10:13:37.335Z,98.00
2023-09-06T10:16:05.313Z,97.10
2023-09-06T10:18:33.306Z,97.30
2023-09-06T10:21:04.800Z,97.80
2023-09-06T10:23:32.932Z,97.50
2023-09-06T10:26:01.741Z,97.10
2023-09-06T10:28:33.358Z,97.40
2023-09-06T10:31:09.104Z,97.50
2023-09-06T10:33:43.733Z,96.90
2023-09-06T10:36:13.793Z,96.60
2023-09-06T10:39:01.941Z,96.40
2023-09-06T10:41:29.103Z,96.30
2023-09-06T10:44:05.018Z,96.10
2023-09-06T10:46:36.719Z,96.20
2023-09-06T10:49:28.591Z,96.30
2023-09-06T10:52:06.171Z,96.60
2023-09-06T10:54:43.769Z,96.40
2023-09-06T10:57:13.085Z,96.70
2023-09-06T10:59:45.240Z,96.50
2023-09-06T11:02:29.304Z,96.50
2023-09-06T11:05:11.829Z,96.20
2023-09-06T11:10:15.276Z,96.10
2023-09-06T11:12:42.569Z,96.60
2023-09-06T11:15:11.347Z,96.40
2023-09-06T11:17:38.759Z,96.60
2023-09-06T11:20:14.089Z,96.90
2023-09-06T11:22:51.447Z,96.10
2023-09-06T11:25:24.151Z,96.10
2023-09-06T11:27:52.679Z,96.60
2023-09-06T11:30:22.835Z,95.80
2023-09-06T11:32:51.215Z,96.00
2023-09-06T11:35:25.769Z,95.60
2023-09-06T11:37:54.036Z,95.20
2023-09-06T11:40:22.436Z,95.30
2023-09-06T11:43:03.881Z,95.50
2023-09-06T11:45:32.810Z,95.30
2023-09-06T11:48:05.942Z,95.30
2023-09-06T11:50:35.669Z,96.00
2023-09-06T11:53:07.183Z,95.90
2023-09-06T11:55:35.069Z,96.40
2023-09-06T11:58:02.444Z,96.00
2023-09-06T12:00:45.055Z,95.30
2023-09-06T12:03:20.297Z,95.10
2023-09-06T12:05:52.971Z,95.60
2023-09-06T12:08:24.685Z,95.70
2023-09-06T12:11:06.549Z,94.80
2023-09-06T12:13:38.773Z,94.70
2023-09-06T12:16:11.122Z,94.40
2023-09-06T12:18:39.476Z,94.20
2023-09-06T12:21:07.617Z,94.10
2023-09-06T12:23:38.053Z,93.60
2023-09-06T12:26:07.234Z,94.00
2023-09-06T12:28:34.672Z,94.00
2023-09-06T12:31:16.641Z,94.20
2023-09-06T12:33:47.261Z,94.30
2023-09-06T12:36:17.953Z,94.10
2023-09-06T12:38:45.832Z,94.60
2023-09-06T12:41:13.921Z,94.20
2023-09-06T12:43:41.422Z,93.30
2023-09-06T12:46:12.553Z,93.90
2023-09-06T12:48:40.047Z,93.60
2023-09-06T12:51:08.461Z,93.60
2023-09-06T12:53:36.231Z,93.50
2023-09-06T12:56:04.538Z,93.60
2023-09-06T12:58:33.436Z,94.00
2023-09-06T13:01:04.296Z,93.60
2023-09-06T13:03:32.140Z,93.40
2023-09-06T13:06:02.847Z,93.20
2023-09-06T13:08:30.327Z,93.50
2023-09-06T13:10:57.470Z,93.10
2023-09-06T13:13:24.652Z,93.30
2023-09-06T13:15:51.806Z,92.50
2023-09-06T13:18:21.166Z,93.10
2023-09-06T13:20:50.608Z,92.80
2023-09-06T13:23:17.659Z,92.40
2023-09-06T13:25:47.303Z,92.40
2023-09-06T13:28:14.246Z,92.40
2023-09-06T13:30:41.608Z,92.70
2023-09-06T13:33:08.626Z,92.50
2023-09-06T13:35:35.758Z,92.20
2023-09-06T13:38:02.751Z,91.70
2023-09-06T13:40:29.785Z,92.00
2023-09-06T13:42:57.745Z,91.30
2023-09-06T13:45:25.437Z,90.90
2023-09-06T13:47:53.542Z,91.00
2023-09-06T13:50:20.770Z,90.80
2023-09-06T13:52:47.806Z,90.40
2023-09-06T13:55:14.989Z,90.10
2023-09-06T13:57:42.311Z,90.00
2023-09-06T14:00:12.864Z,89.10
2023-09-06T14:02:40.432Z,89.00
2023-09-06T14:05:08.433Z,88.90
2023-09-06T14:07:35.308Z,88.40
2023-09-06T14:10:02.420Z,87.70
2023-09-06T14:12:29.878Z,88.30
2023-09-06T14:14:58.088Z,87.20
2023-09-06T14:17:25.406Z,87.70
2023-09-06T14:19:52.621Z,87.70
2023-09-06T14:22:20.609Z,87.20
2023-09-06T14:24:47.706Z,86.10
2023-09-06T14:27:16.626Z,87.20
2023-09-06T14:29:43.999Z,85.10
2023-09-06T14:32:11.247Z,84.90
2023-09-06T14:34:38.421Z,86.50
2023-09-06T14:37:05.707Z,86.90
2023-09-06T14:39:34.361Z,85.90
2023-09-06T14:42:01.487Z,84.90
2023-09-06T14:44:28.581Z,83.80
2023-09-06T14:46:56.331Z,85.30
2023-09-06T14:49:23.541Z,84.60
2023-09-06T14:51:50.813Z,84.00
2023-09-06T14:54:17.818Z,84.40
2023-09-06T14:56:44.886Z,80.50
2023-09-06T14:59:11.900Z,79.20
2023-09-06T15:01:39.914Z,76.60
2023-09-06T15:04:08.046Z,77.00
2023-09-06T15:06:48.527Z,76.50
2023-09-06T15:09:23.898Z,75.20
2023-09-06T15:11:54.090Z,75.10
2023-09-06T15:14:21.117Z,75.20
2023-09-06T15:16:49.443Z,75.60
2023-09-06T15:19:17.030Z,75.60
2023-09-06T15:21:44.524Z,75.70
2023-09-06T15:24:11.806Z,76.60
2023-09-06T15:26:39.159Z,76.40
2023-09-06T15:29:06.706Z,76.40
2023-09-06T15:31:34.065Z,76.40
2023-09-06T15:34:01.392Z,75.00
2023-09-06T15:36:31.658Z,74.60
2023-09-06T15:38:59.032Z,73.80
2023-09-06T15:41:33.026Z,75.80
2023-09-06T15:46:30.345Z,75.60
2023-09-06T15:48:57.407Z,75.90
2023-09-06T15:51:25.192Z,77.00
2023-09-06T15:53:52.301Z,77.40
2023-09-06T15:56:20.473Z,77.20
2023-09-06T15:58:47.434Z,76.50
2023-09-06T16:01:14.597Z,77.90
2023-09-06T16:03:42.152Z,76.20
2023-09-06T16:06:09.354Z,76.10
2023-09-06T16:08:36.332Z,75.30
2023-09-06T16:11:04.568Z,75.30
2023-09-06T16:13:31.804Z,75.40
2023-09-06T16:15:58.922Z,75.40
2023-09-06T16:18:25.945Z,75.60
2023-09-06T16:20:53.441Z,76.40
2023-09-06T16:23:20.439Z,76.30
2023-09-06T16:25:47.574Z,76.60
2023-09-06T16:28:14.524Z,75.20
2023-09-06T16:30:42.975Z,76.30
2023-09-06T16:33:12.366Z,75.00
2023-09-06T16:35:39.538Z,75.90
2023-09-06T16:38:09.523Z,76.60
2023-09-06T16:40:41.009Z,75.50
2023-09-06T16:43:08.056Z,75.20
2023-09-06T16:45:35.687Z,75.30
2023-09-06T16:48:02.876Z,76.30
2023-09-06T16:50:30.190Z,75.20
2023-09-06T16:52:57.463Z,76.40
2023-09-06T16:55:24.668Z,76.20
2023-09-06T16:57:54.161Z,76.00
2023-09-06T17:00:22.924Z,76.60
2023-09-06T17:02:53.865Z,76.60
2023-09-06T17:05:21.921Z,76.60
2023-09-06T17:07:49.954Z,76.40
2023-09-06T17:10:19.913Z,76.30
2023-09-06T17:12:47.653Z,75.90
2023-09-06T17:15:16.939Z,76.90
2023-09-06T17:17:44.395Z,76.50
2023-09-06T17:20:15.914Z,77.50
2023-09-06T17:22:44.327Z,77.70
2023-09-06T17:25:11.969Z,77.90
2023-09-06T17:27:42.842Z,78.60
2023-09-06T17:30:23.603Z,79.60
2023-09-06T17:33:23.285Z,79.90
2023-09-06T17:35:50.295Z,80.70
2023-09-06T17:38:18.766Z,81.60
2023-09-06T17:40:53.010Z,81.20
2023-09-06T17:43:22.654Z,82.10
2023-09-06T17:45:49.910Z,82.80
2023-09-06T17:48:19.599Z,82.70
2023-09-06T17:50:52.395Z,83.30
2023-09-06T17:53:22.296Z,83.90
2023-09-06T17:55:51.413Z,84.20
2023-09-06T17:58:19.208Z,84.70
2023-09-06T18:00:47.201Z,85.30
2023-09-06T18:03:19.761Z,85.90
2023-09-06T18:05:57.212Z,86.20
2023-09-06T18:08:28.283Z,86.60
2023-09-06T18:10:56.660Z,87.70
2023-09-06T18:13:24.075Z,87.90
2023-09-06T18:15:54.109Z,88.20
2023-09-06T18:18:21.769Z,89.00
2023-09-06T18:20:49.011Z,88.90
2023-09-06T18:23:17.052Z,89.40
2023-09-06T18:25:44.124Z,89.90
2023-09-06T18:28:11.720Z,89.90
2023-09-06T18:30:46.077Z,90.00
2023-09-06T18:33:14.798Z,90.00
2023-09-06T18:35:46.183Z,90.20
2023-09-06T18:38:15.637Z,90.30
2023-09-06T18:40:43.709Z,90.50
2023-09-06T18:43:13.917Z,90.60
2023-09-06T18:45:43.794Z,90.90
2023-09-06T18:48:18.815Z,91.00
2023-09-06T18:50:47.420Z,91.10
2023-09-06T18:53:14.912Z,91.20
2023-09-06T18:55:44.529Z,91.50
2023-09-06T18:58:12.896Z,91.30
2023-09-06T19:00:42.284Z,91.50
2023-09-06T19:03:12.843Z,91.50
2023-09-06T19:05:41.451Z,91.80
2023-09-06T19:08:13.087Z,92.00
2023-09-06T19:10:44.136Z,92.20
2023-09-06T19:13:12.437Z,92.50
2023-09-06T19:15:39.769Z,92.60
2023-09-06T19:18:07.761Z,92.50
2023-09-06T19:20:37.626Z,92.40
2023-09-06T19:23:07.748Z,92.70
2023-09-06T19:25:38.869Z,92.50
2023-09-06T19:28:08.190Z,92.60
2023-09-06T19:30:35.823Z,92.90
2023-09-06T19:33:04.208Z,93.00
2023-09-06T19:35:31.911Z,92.90
2023-09-06T19:37:59.384Z,93.20
2023-09-06T19:40:26.766Z,93.30
2023-09-06T19:42:54.393Z,93.50
2023-09-06T19:45:21.332Z,94.10
2023-09-06T19:47:49.530Z,94.00
2023-09-06T19:50:16.776Z,94.70
2023-09-06T19:52:43.727Z,94.70
2023-09-06T19:55:10.798Z,95.20
2023-09-06T19:57:38.239Z,95.20
2023-09-06T20:00:07.324Z,96.10
2023-09-06T20:02:35.941Z,96.10
2023-09-06T20:05:03.529Z,96.00
2023-09-06T20:07:31.023Z,96.40
2023-09-06T20:09:58.087Z,96.70
2023-09-06T20:12:24.991Z,96.80
2023-09-06T20:14:51.948Z,96.80
2023-09-06T20:17:19.290Z,97.10
2023-09-06T20:19:46.433Z,97.40
2023-09-06T20:22:13.646Z,97.40
2023-09-06T20:24:40.948Z,97.40
2023-09-06T20:27:09.403Z,97.30
2023-09-06T20:29:36.595Z,97.30
2023-09-06T20:32:03.741Z,97.50
2023-09-06T20:34:31.361Z,98.20
2023-09-06T20:36:58.483Z,98.40
2023-09-06T20:39:25.528Z,98.50
2023-09-06T20:41:52.520Z,98.40
2023-09-06T20:44:19.673Z,98.30
2023-09-06T20:46:46.885Z,98.90
2023-09-06T20:49:17.560Z,98.90
2023-09-06T20:51:48.582Z,98.70
2023-09-06T20:54:15.768Z,99.30
2023-09-06T20:56:43.169Z,99.20
2023-09-06T20:59:10.310Z,99.40
2023-09-06T21:01:37.780Z,99.80
2023-09-06T21:04:05.369Z,99.90
2023-09-06T21:06:33.230Z,99.90
2023-09-06T21:09:00.629Z,99.90
2023-09-06T21:11:27.669Z,99.90
2023-09-06T21:13:54.839Z,99.90
2023-09-06T21:16:21.953Z,99.90
2023-09-06T21:18:48.986Z,99.90
2023-09-06T21:21:16.325Z,99.90
2023-09-06T21:23:43.381Z,99.90
2023-09-06T21:26:11.081Z,99.90
2023-09-06T21:28:38.296Z,99.90
2023-09-06T21:31:05.671Z,99.90
2023-09-06T21:33:33.416Z,99.90
2023-09-06T21:36:00.519Z,99.90
2023-09-06T21:38:27.579Z,99.90
2023-09-06T21:40:56.378Z,99.90
2023-09-06T21:43:23.413Z,99.90
2023-09-06T21:45:50.814Z,99.90
2023-09-06T21:48:18.003Z,99.90
2023-09-06T21:50:49.955Z,99.90
2023-09-06T21:53:17.157Z,99.90
2023-09-06T21:55:44.338Z,99.90
2023-09-06T21:58:11.867Z,99.90
2023-09-06T22:00:40.081Z,99.90
2023-09-06T22:03:07.664Z,99.90
2023-09-06T22:05:35.941Z,99.90
2023-09-06T22:08:03.258Z,99.90
2023-09-06T22:10:30.217Z,99.90
2023-09-06T22:12:58.630Z,99.90
2023-09-06T22:15:25.720Z,99.90
2023-09-06T22:17:52.881Z,99.90
2023-09-06T22:20:20.513Z,99.90
2023-09-06T22:22:47.750Z,99.90
2023-09-06T22:25:14.834Z,99.90
2023-09-06T22:27:42.326Z,99.90
2023-09-06T22:30:10.018Z,99.90
2023-09-06T22:32:39.470Z,99.90
2023-09-06T22:35:06.790Z,99.90
2023-09-06T22:37:36.175Z,99.90
2023-09-06T22:40:05.973Z,99.90
2023-09-06T22:42:33.408Z,99.90
2023-09-06T22:45:00.677Z,99.90
2023-09-06T22:47:27.833Z,99.90
2023-09-06T22:49:55.937Z,99.90
2023-09-06T22:52:24.155Z,99.90
2023-09-06T22:54:51.606Z,99.90
2023-09-06T22:57:19.370Z,99.90
2023-09-06T22:59:47.940Z,99.90
2023-09-06T23:02:15.355Z,99.90
2023-09-06T23:04:43.028Z,99.90
2023-09-06T23:07:10.476Z,99.90
2023-09-06T23:09:38.105Z,99.90
2023-09-06T23:12:06.436Z,99.90
2023-09-06T23:14:38.183Z,99.90
2023-09-06T23:17:08.857Z,99.90
2023-09-06T23:19:48.317Z,99.90
2023-09-06T23:22:18.361Z,99.90
2023-09-06T23:24:47.730Z,99.90
2023-09-06T23:27:24.453Z,99.90
2023-09-06T23:30:02.965Z,99.90
2023-09-06T23:32:32.510Z,99.90
2023-09-06T23:34:59.940Z,99.90
2023-09-06T23:37:29.431Z,99.90
2023-09-06T23:39:59.889Z,99.90
2023-09-06T23:42:28.383Z,99.90
2023-09-06T23:44:55.577Z,99.90
2023-09-06T23:47:22.950Z,99.90
2023-09-06T23:49:51.180Z,99.90
2023-09-06T23:52:18.195Z,99.90
2023-09-06T23:54:48.568Z,99.90
2023-09-06T23:57:19.205Z,99.90
2023-09-06T23:59:47.557Z,99.90
